Andrew, IA

1:31 AM CDT on October 25, 2014 (GMT -0500)
Tri-Township | Change Station
CLOSE
Current Station
Airport
Location: Savanna,
Elevation: 617 ft
Nearby Weather Stations
Active Advisory: Dense Fog Advisory

Elev 617 ft 42.05 °N, 90.11 °W | Updated 16 minutes ago

Overcast
Overcast
60 °F
Feels Like 60 °F
N
8
Wind Variable Wind from West

Today
High -- | Low -- °F
--% Chance of Precip.
Yesterday
High -- | Low -- °F
Precip. -- in
7:26 AM 6:05 PM
New Moon, 2% visible
Pressure 29.93 in
Visibility 4.0 miles
Clouds Overcast 700 ft
Dew Point 57 °F
Humidity 91%
Rainfall 0.00 in
Snow Depth Not available.
UV 0 out of 12
Pollen 1.20 out of 12
Air Quality Not available.
Flu Activity Sporadic
METAR KSFY 250615Z AUTO 27007KT 4SM BR OVC007 16/14 A2993 RMK AO2 T01550140

More Conditions Fewer Conditions

Pressure 29.93 in
Visibility 4.0 miles
Clouds Overcast 700 ft
Dew Point 57 °F
Humidity 91%
Rainfall 0.00 in
Snow Depth Not available.
UV 0 out of 12
Pollen 1.20 out of 12
Air Quality Not available.
Flu Activity Sporadic
METAR KSFY 250615Z AUTO 27007KT 4SM BR OVC007 16/14 A2993 RMK AO2 T01550140

More Conditions Fewer Conditions

10-Day Weather Forecast

Almanac

Astronomy

Oct. 25, 2014 Rise Set
Actual Time 7:26 AM CDT 6:05 PM CDT
Civil Twilight 6:58 AM CDT 6:34 PM CDT
Nautical Twilight 6:25 AM CDT 7:06 PM CDT
Astronomical Twilight 5:52 AM CDT 7:39 PM CDT
Moon 9:07 AM CDT 7:27 PM CDT
Length of Visible Light 11h 35m
Length of Day
10h 38m
Tomorrow will be 2m 37s shorter.
New Moon, 2% of the Moon is Illuminated
Today
New Moon
Oct 30
First Quarter
Nov 6
Full
Nov 14
Last Quarter
Nov 22
New

Today's Extremes

State Highs State Lows

Community

WunderPhotos

Upload Photos

1,764,785 photos uploaded!

Nearby

Snow Depth

Station Depth Elevation
No new snow has been reported.

Earthquake Activity

City Distance Mag. Time & Date
No recent earthquake activity has been reported nearby.
Minimum magnitude displayed is 2.5.

Coastal Water Temperatures

Place Temperature
No Stations Reporting

Nearby Weather Stations